Time;durP1;ratioP1;P1;durP2;ratioP2;P2;SDS_P1;SDS_P2;PMS_P1;PMS_P2;Temp;Humidity;BMP_temperature;BMP_pressure;BME280_temperature;BME280_humidity;BME280_pressure;Samples;Min_cycle;Max_cycle;Signal;HPM_P1;HPM_P2
2022/04/02 00:00:55;;;;;;;;;;;1.70;86.90;;;;;;5028356;28;19917;-80
2022/04/02 00:03:21;;;;;;;;;;;1.60;86.60;;;;;;5031333;28;19956;-80
2022/04/02 00:05:47;;;;;;;;;;;1.60;86.90;;;;;;5031040;28;19966;-80
2022/04/02 00:08:12;;;;;;;;;;;1.70;87.60;;;;;;5030876;28;19917;-80
2022/04/02 00:10:38;;;;;;;;;;;1.70;87.40;;;;;;5031811;28;20518;-80
2022/04/02 00:13:03;;;;;;;;;;;1.70;86.30;;;;;;5027965;28;19948;-79
2022/04/02 00:15:29;;;;;;;;;;;1.80;86.30;;;;;;5028415;28;20380;-80
2022/04/02 00:17:54;;;;;;;;;;;1.70;84.60;;;;;;5031733;28;19927;-80
2022/04/02 00:20:20;;;;;;;;;;;1.70;85.90;;;;;;5029404;28;19913;-80
2022/04/02 00:25:30;;;;;;;;;;;1.60;86.10;;;;;;5032591;28;19956;-80
2022/04/02 00:27:55;;;;;;;;;;;1.60;86.40;;;;;;5031481;28;19948;-80
2022/04/02 00:30:20;;;;;;;;;;;1.60;85.40;;;;;;5031126;28;19923;-80
2022/04/02 00:32:46;;;;;;;;;;;1.60;85.40;;;;;;5030818;28;19913;-80
2022/04/02 00:35:12;;;;;;;;;;;1.60;85.90;;;;;;5031082;28;20011;-80
2022/04/02 00:37:37;;;;;;;;;;;1.50;86.10;;;;;;5029233;28;19925;-82
2022/04/02 00:40:03;;;;;;;;;;;1.50;85.50;;;;;;5022873;28;19913;-79
2022/04/02 00:42:28;;;;;;;;;;;1.60;85.60;;;;;;5030803;28;19914;-80
2022/04/02 00:44:54;;;;;;;;;;;1.50;86.10;;;;;;5037852;28;19917;-80
2022/04/02 00:47:20;;;;;;;;;;;1.50;85.20;;;;;;5030886;28;19917;-81
2022/04/02 00:49:46;;;;;;;;;;;1.50;85.30;;;;;;5029481;28;19921;-80
2022/04/02 00:52:12;;;;;;;;;;;1.40;85.10;;;;;;5028291;28;19913;-80
2022/04/02 00:54:39;;;;;;;;;;;1.50;85.60;;;;;;5030324;28;19924;-80
2022/04/02 00:57:04;;;;;;;;;;;1.60;85.80;;;;;;5030585;28;19913;-80
2022/04/02 00:59:30;;;;;;;;;;;1.60;86.20;;;;;;5026489;28;19913;-80
2022/04/02 01:01:56;;;;;;;;;;;1.70;85.40;;;;;;5025803;28;19995;-80
2022/04/02 01:04:21;;;;;;;;;;;1.70;84.50;;;;;;5026223;28;20047;-80
2022/04/02 01:06:47;;;;;;;;;;;1.60;84.80;;;;;;5029192;28;19913;-80
2022/04/02 01:09:13;;;;;;;;;;;1.60;85.70;;;;;;5031083;28;20254;-80
2022/04/02 01:11:39;;;;;;;;;;;1.70;85.20;;;;;;5028973;28;20017;-80
2022/04/02 01:14:05;;;;;;;;;;;1.70;85.10;;;;;;5029154;28;19917;-80
2022/04/02 01:16:32;;;;;;;;;;;1.60;84.90;;;;;;5030603;28;20342;-81
2022/04/02 01:18:58;;;;;;;;;;;1.70;83.20;;;;;;5030118;28;19924;-80
2022/04/02 01:21:23;;;;;;;;;;;1.60;83.50;;;;;;5031969;28;20245;-80
2022/04/02 01:23:49;;;;;;;;;;;1.50;83.80;;;;;;5030589;28;19957;-81
2022/04/02 01:26:14;;;;;;;;;;;1.40;83.40;;;;;;5030403;28;20030;-81
2022/04/02 01:28:40;;;;;;;;;;;1.50;84.20;;;;;;5029612;28;19925;-81
2022/04/02 01:31:06;;;;;;;;;;;1.60;84.40;;;;;;5030878;28;19913;-81
2022/04/02 01:33:32;;;;;;;;;;;1.60;83.20;;;;;;5029847;28;19913;-81
2022/04/02 01:35:59;;;;;;;;;;;1.60;82.70;;;;;;5044393;28;20005;-81
2022/04/02 01:38:24;;;;;;;;;;;1.60;82.20;;;;;;5041202;28;19919;-81
2022/04/02 01:40:50;;;;;;;;;;;1.60;82.30;;;;;;5031587;28;19914;-81
2022/04/02 01:43:15;;;;;;;;;;;1.60;83.60;;;;;;5031225;28;19913;-82
2022/04/02 01:45:41;;;;;;;;;;;1.60;83.80;;;;;;5031261;28;19917;-81
2022/04/02 01:48:06;;;;;;;;;;;1.60;83.10;;;;;;5029972;28;19917;-82
2022/04/02 01:50:32;;;;;;;;;;;1.60;83.20;;;;;;5031296;28;19919;-82
2022/04/02 01:52:57;;;;;;;;;;;1.60;83.10;;;;;;5044292;28;19983;-82
2022/04/02 01:55:23;;;;;;;;;;;1.60;82.90;;;;;;5029921;28;19924;-82
2022/04/02 01:57:48;;;;;;;;;;;1.60;82.60;;;;;;5030321;28;19913;-82
2022/04/02 02:00:14;;;;;;;;;;;1.50;82.80;;;;;;5032329;28;20067;-82
2022/04/02 02:02:40;;;;;;;;;;;1.60;82.60;;;;;;5029852;28;19913;-82
2022/04/02 02:05:05;;;;;;;;;;;1.60;82.80;;;;;;5031189;28;19921;-82
2022/04/02 02:07:31;;;;;;;;;;;1.60;82.50;;;;;;5033659;28;19928;-82
2022/04/02 02:09:57;;;;;;;;;;;1.50;82.70;;;;;;5033369;28;19919;-82
2022/04/02 02:12:23;;;;;;;;;;;1.40;82.60;;;;;;5029984;28;19913;-81
2022/04/02 02:14:48;;;;;;;;;;;1.60;81.80;;;;;;5032176;28;19913;-82
2022/04/02 02:17:15;;;;;;;;;;;1.50;82.10;;;;;;5026665;28;19917;-81
2022/04/02 02:19:40;;;;;;;;;;;1.50;81.80;;;;;;5027779;28;20232;-82
2022/04/02 02:22:06;;;;;;;;;;;1.50;82.10;;;;;;5029143;28;19959;-83
2022/04/02 02:24:32;;;;;;;;;;;1.40;81.70;;;;;;5028586;28;20447;-83
2022/04/02 02:26:58;;;;;;;;;;;1.50;82.40;;;;;;5030348;28;20368;-82
2022/04/02 02:29:23;;;;;;;;;;;1.50;81.20;;;;;;5029045;28;19965;-82
2022/04/02 02:31:49;;;;;;;;;;;1.40;81.10;;;;;;5028755;28;19972;-82
2022/04/02 02:36:58;;;;;;;;;;;1.50;80.60;;;;;;5035229;28;19920;-82
2022/04/02 02:39:24;;;;;;;;;;;1.50;81.30;;;;;;5028912;28;20308;-82
2022/04/02 02:41:49;;;;;;;;;;;1.30;80.80;;;;;;5017104;28;20012;-82
2022/04/02 02:44:15;;;;;;;;;;;1.40;81.20;;;;;;5031015;28;19971;-82
2022/04/02 02:46:40;;;;;;;;;;;1.40;80.30;;;;;;5026081;28;19920;-83
2022/04/02 02:49:06;;;;;;;;;;;1.40;80.30;;;;;;5029630;28;19917;-82
2022/04/02 02:51:31;;;;;;;;;;;1.30;80.90;;;;;;5030083;28;19952;-82
2022/04/02 02:53:56;;;;;;;;;;;1.40;81.20;;;;;;5029834;28;20280;-82
2022/04/02 02:56:22;;;;;;;;;;;1.30;80.40;;;;;;5028808;28;20008;-82
2022/04/02 02:58:47;;;;;;;;;;;1.30;82.10;;;;;;5028223;28;19945;-81
2022/04/02 03:01:13;;;;;;;;;;;1.50;81.10;;;;;;5028893;28;19940;-82
2022/04/02 03:03:38;;;;;;;;;;;1.40;80.70;;;;;;5029681;28;19913;-82
2022/04/02 03:06:04;;;;;;;;;;;1.40;81.80;;;;;;5039224;28;19948;-82
2022/04/02 03:08:30;;;;;;;;;;;1.30;80.70;;;;;;5032783;28;19924;-82
2022/04/02 03:10:55;;;;;;;;;;;1.30;81.30;;;;;;5034517;28;19928;-81
2022/04/02 03:13:21;;;;;;;;;;;1.30;80.50;;;;;;5039492;28;19913;-81
2022/04/02 03:15:46;;;;;;;;;;;1.40;79.90;;;;;;5046879;28;19944;-82
2022/04/02 03:18:12;;;;;;;;;;;1.40;80.50;;;;;;5048259;28;19917;-82
2022/04/02 03:20:37;;;;;;;;;;;1.40;80.20;;;;;;5039742;28;19913;-82
2022/04/02 03:23:04;;;;;;;;;;;1.40;80.40;;;;;;5034956;28;19948;-82
2022/04/02 03:25:29;;;;;;;;;;;1.30;79.60;;;;;;5032463;28;19936;-82
2022/04/02 03:27:55;;;;;;;;;;;1.30;79.10;;;;;;5032131;28;20383;-82
2022/04/02 03:30:21;;;;;;;;;;;1.30;79.50;;;;;;5034725;28;19913;-82
2022/04/02 03:32:47;;;;;;;;;;;1.30;79.20;;;;;;5035937;28;19913;-82
2022/04/02 03:35:14;;;;;;;;;;;1.30;79.20;;;;;;5037735;28;19919;-82
2022/04/02 03:37:41;;;;;;;;;;;1.30;79.00;;;;;;5036436;28;19990;-82
2022/04/02 03:40:08;;;;;;;;;;;1.40;78.40;;;;;;5035542;28;19913;-83
2022/04/02 03:42:34;;;;;;;;;;;1.30;78.40;;;;;;5035948;28;19921;-82
2022/04/02 03:44:59;;;;;;;;;;;1.30;79.10;;;;;;5036525;28;19913;-82
2022/04/02 03:47:25;;;;;;;;;;;1.20;79.60;;;;;;5035101;28;20002;-81
2022/04/02 03:49:53;;;;;;;;;;;1.30;79.00;;;;;;5031770;28;20431;-81
2022/04/02 03:52:19;;;;;;;;;;;1.30;78.20;;;;;;5034095;28;19949;-81
2022/04/02 03:54:44;;;;;;;;;;;1.30;78.40;;;;;;5032748;28;19917;-81
2022/04/02 03:57:10;;;;;;;;;;;1.30;78.20;;;;;;5032340;28;19913;-81
2022/04/02 03:59:36;;;;;;;;;;;1.30;78.80;;;;;;5021206;28;20441;-80
2022/04/02 04:02:02;;;;;;;;;;;1.30;79.10;;;;;;5030957;28;19917;-80
2022/04/02 04:04:28;;;;;;;;;;;1.30;78.60;;;;;;5032285;28;19924;-80
2022/04/02 04:06:56;;;;;;;;;;;1.30;77.60;;;;;;5030193;28;20198;-79
2022/04/02 04:09:21;;;;;;;;;;;1.30;77.20;;;;;;5031397;28;19927;-80
2022/04/02 04:11:47;;;;;;;;;;;1.30;76.20;;;;;;5030967;28;19913;-80
2022/04/02 04:14:14;;;;;;;;;;;1.30;77.80;;;;;;5031659;28;19956;-80
2022/04/02 04:16:39;;;;;;;;;;;1.30;77.60;;;;;;5032686;28;19963;-80
2022/04/02 04:19:04;;;;;;;;;;;1.30;77.00;;;;;;5029243;28;19924;-81
2022/04/02 04:21:30;;;;;;;;;;;1.20;77.80;;;;;;5030642;28;19913;-80
2022/04/02 04:23:55;;;;;;;;;;;1.30;78.10;;;;;;5030298;28;19920;-80
2022/04/02 04:26:21;;;;;;;;;;;1.40;77.60;;;;;;5030224;28;19921;-81
2022/04/02 04:28:46;;;;;;;;;;;1.40;77.20;;;;;;5029719;28;19940;-80
2022/04/02 04:31:17;;;;;;;;;;;1.30;76.50;;;;;;5032362;28;19914;-81
2022/04/02 04:33:43;;;;;;;;;;;1.20;77.10;;;;;;5020355;28;19917;-81
2022/04/02 04:36:08;;;;;;;;;;;1.20;77.20;;;;;;5030601;28;19909;-80
2022/04/02 04:38:33;;;;;;;;;;;1.20;76.50;;;;;;5028892;28;19920;-80
2022/04/02 04:40:59;;;;;;;;;;;1.20;76.90;;;;;;5030277;28;20008;-80
2022/04/02 04:43:26;;;;;;;;;;;1.20;76.90;;;;;;5030603;28;20044;-81
2022/04/02 04:45:51;;;;;;;;;;;1.10;77.70;;;;;;5030965;28;20398;-80
2022/04/02 04:48:17;;;;;;;;;;;1.10;77.10;;;;;;5029044;28;20012;-80
2022/04/02 04:50:42;;;;;;;;;;;1.20;76.80;;;;;;5029881;28;20008;-81
2022/04/02 04:53:09;;;;;;;;;;;1.10;76.90;;;;;;5047133;28;19913;-80
2022/04/02 04:55:35;;;;;;;;;;;1.10;77.60;;;;;;5046078;28;19917;-81
2022/04/02 04:58:02;;;;;;;;;;;1.10;76.80;;;;;;5032664;28;19913;-81
2022/04/02 05:00:27;;;;;;;;;;;1.20;76.60;;;;;;5030410;28;19913;-81
2022/04/02 05:02:53;;;;;;;;;;;1.20;77.40;;;;;;5032482;28;20375;-81
2022/04/02 05:05:18;;;;;;;;;;;1.20;77.00;;;;;;5027961;28;19924;-80
2022/04/02 05:07:44;;;;;;;;;;;1.20;76.80;;;;;;5030700;28;19943;-81
2022/04/02 05:10:10;;;;;;;;;;;1.10;77.30;;;;;;5032425;28;19996;-81
2022/04/02 05:12:37;;;;;;;;;;;1.10;76.90;;;;;;5032317;28;19924;-80
2022/04/02 05:15:03;;;;;;;;;;;1.20;77.30;;;;;;5029472;28;20289;-81
2022/04/02 05:17:29;;;;;;;;;;;1.20;76.60;;;;;;5025975;28;19917;-80
2022/04/02 05:19:54;;;;;;;;;;;1.20;77.00;;;;;;5029677;28;19921;-80
2022/04/02 05:22:20;;;;;;;;;;;1.20;76.50;;;;;;5039033;28;20379;-80
2022/04/02 05:24:45;;;;;;;;;;;1.20;77.00;;;;;;5048268;28;19920;-80
2022/04/02 05:27:11;;;;;;;;;;;1.20;76.40;;;;;;5044823;28;19923;-82
2022/04/02 05:29:36;;;;;;;;;;;1.20;76.80;;;;;;5030926;28;19913;-81
2022/04/02 05:32:03;;;;;;;;;;;1.20;77.10;;;;;;5033360;28;19914;-81
2022/04/02 05:34:29;;;;;;;;;;;1.10;77.50;;;;;;5022675;28;19917;-81
2022/04/02 05:36:55;;;;;;;;;;;1.20;76.80;;;;;;5031133;28;19929;-81
2022/04/02 05:39:20;;;;;;;;;;;1.30;75.80;;;;;;5028920;28;19917;-80
2022/04/02 05:41:46;;;;;;;;;;;1.30;75.20;;;;;;5031587;28;20383;-82
2022/04/02 05:44:11;;;;;;;;;;;1.20;76.30;;;;;;5037250;28;19913;-80
2022/04/02 05:46:37;;;;;;;;;;;1.20;75.60;;;;;;5035491;28;19923;-81
2022/04/02 05:49:03;;;;;;;;;;;1.10;76.00;;;;;;5029318;28;20004;-81
2022/04/02 05:51:28;;;;;;;;;;;1.30;76.10;;;;;;5030648;28;19956;-80
2022/04/02 05:53:54;;;;;;;;;;;1.30;75.40;;;;;;5031796;28;19917;-79
2022/04/02 05:56:19;;;;;;;;;;;1.20;75.80;;;;;;5032542;28;19924;-81
2022/04/02 05:58:45;;;;;;;;;;;1.30;75.60;;;;;;5029676;28;19917;-80
2022/04/02 06:01:11;;;;;;;;;;;1.20;75.80;;;;;;5027480;28;20028;-80
2022/04/02 06:03:39;;;;;;;;;;;1.30;75.90;;;;;;5031875;28;19919;-80
2022/04/02 06:06:05;;;;;;;;;;;1.40;75.70;;;;;;5023958;28;19914;-79
2022/04/02 06:08:32;;;;;;;;;;;1.30;75.40;;;;;;5031227;28;19917;-80
2022/04/02 06:10:57;;;;;;;;;;;1.40;75.90;;;;;;5028986;28;19913;-80
2022/04/02 06:13:22;;;;;;;;;;;1.30;75.90;;;;;;5031235;28;19936;-79
2022/04/02 06:15:48;;;;;;;;;;;1.50;76.00;;;;;;5029600;28;19920;-79
2022/04/02 06:18:17;;;;;;;;;;;1.40;75.20;;;;;;5028832;28;19963;-79
2022/04/02 06:20:47;;;;;;;;;;;1.50;75.10;;;;;;5027468;28;19957;-81
2022/04/02 06:23:13;;;;;;;;;;;1.50;75.50;;;;;;5016978;28;19913;-80
2022/04/02 06:25:39;;;;;;;;;;;1.50;75.90;;;;;;5029187;28;19921;-79
2022/04/02 06:28:05;;;;;;;;;;;1.40;76.30;;;;;;5020921;28;20328;-79
2022/04/02 06:30:30;;;;;;;;;;;1.50;75.80;;;;;;5033696;28;19921;-79
2022/04/02 06:32:56;;;;;;;;;;;1.50;76.30;;;;;;5035758;28;19975;-78
2022/04/02 06:35:22;;;;;;;;;;;1.60;75.10;;;;;;5031730;28;19961;-78
2022/04/02 06:37:50;;;;;;;;;;;1.70;76.00;;;;;;5030850;28;19920;-79
2022/04/02 06:40:16;;;;;;;;;;;1.70;74.30;;;;;;5029356;28;19988;-79
2022/04/02 06:42:42;;;;;;;;;;;1.60;74.00;;;;;;5030562;28;19921;-79
2022/04/02 06:45:08;;;;;;;;;;;1.70;75.10;;;;;;5028018;28;19913;-79
2022/04/02 06:47:34;;;;;;;;;;;1.70;75.10;;;;;;5013666;28;19917;-79
2022/04/02 06:50:02;;;;;;;;;;;1.60;74.40;;;;;;5034405;28;19920;-80
2022/04/02 06:52:27;;;;;;;;;;;1.70;75.10;;;;;;5042473;28;20210;-79
2022/04/02 06:54:53;;;;;;;;;;;1.80;74.00;;;;;;5031268;28;19913;-79
2022/04/02 06:57:19;;;;;;;;;;;1.90;75.20;;;;;;5044102;28;19913;-80
2022/04/02 06:59:45;;;;;;;;;;;1.80;74.10;;;;;;5030284;28;20277;-79
2022/04/02 07:02:10;;;;;;;;;;;1.80;74.20;;;;;;5025510;28;20011;-79
2022/04/02 07:04:36;;;;;;;;;;;1.80;73.90;;;;;;5030440;28;19913;-79
2022/04/02 07:07:02;;;;;;;;;;;1.90;75.00;;;;;;5032600;28;19995;-80
2022/04/02 07:09:28;;;;;;;;;;;1.80;73.60;;;;;;5030272;28;19928;-79
2022/04/02 07:11:53;;;;;;;;;;;1.90;74.30;;;;;;5032302;28;19991;-80
2022/04/02 07:14:19;;;;;;;;;;;1.90;74.90;;;;;;5043735;28;19979;-80
2022/04/02 07:16:44;;;;;;;;;;;1.90;73.90;;;;;;5032993;28;19936;-79
2022/04/02 07:19:10;;;;;;;;;;;1.90;74.30;;;;;;5031695;28;19936;-82
2022/04/02 07:21:36;;;;;;;;;;;1.90;73.90;;;;;;5033299;28;20421;-80
2022/04/02 07:24:01;;;;;;;;;;;2.00;74.40;;;;;;5033957;28;20375;-80
2022/04/02 07:26:28;;;;;;;;;;;2.00;74.20;;;;;;5032435;28;19917;-82
2022/04/02 07:28:54;;;;;;;;;;;2.10;73.70;;;;;;5032884;28;20295;-82
2022/04/02 07:31:19;;;;;;;;;;;2.20;73.30;;;;;;5031209;28;19913;-81
2022/04/02 07:33:44;;;;;;;;;;;2.10;73.00;;;;;;5027760;28;20695;-80
2022/04/02 07:36:18;;;;;;;;;;;2.20;72.90;;;;;;5032098;28;19913;-80
2022/04/02 07:38:59;;;;;;;;;;;2.10;72.10;;;;;;5035503;28;20368;-80
2022/04/02 07:41:43;;;;;;;;;;;2.10;73.20;;;;;;5032126;28;20181;-81
2022/04/02 07:44:27;;;;;;;;;;;2.10;73.90;;;;;;5032430;28;19919;-82
2022/04/02 07:46:56;;;;;;;;;;;2.20;73.60;;;;;;5031512;28;20383;-81
2022/04/02 07:49:22;;;;;;;;;;;2.30;73.10;;;;;;5030331;28;20007;-81
2022/04/02 07:51:55;;;;;;;;;;;2.50;73.30;;;;;;5032083;28;19917;-82
2022/04/02 07:54:23;;;;;;;;;;;2.50;72.20;;;;;;5030600;28;20303;-82
2022/04/02 07:56:49;;;;;;;;;;;2.30;72.90;;;;;;5030916;28;19913;-81
2022/04/02 07:59:22;;;;;;;;;;;2.40;72.80;;;;;;5030320;28;19928;-81
2022/04/02 08:01:48;;;;;;;;;;;2.60;73.20;;;;;;5046074;28;20288;-81
2022/04/02 08:04:13;;;;;;;;;;;2.60;71.90;;;;;;5032084;28;20263;-82
2022/04/02 08:06:40;;;;;;;;;;;2.50;71.80;;;;;;5030688;28;20023;-83
2022/04/02 08:09:06;;;;;;;;;;;2.60;72.10;;;;;;5024181;28;20388;-81
2022/04/02 08:11:32;;;;;;;;;;;2.60;71.40;;;;;;5032258;28;19917;-79
2022/04/02 08:13:57;;;;;;;;;;;2.70;71.30;;;;;;5047010;28;19908;-83
2022/04/02 08:16:23;;;;;;;;;;;2.50;70.50;;;;;;5044877;28;19924;-82
2022/04/02 08:18:48;;;;;;;;;;;2.50;72.00;;;;;;5052162;28;19951;-82
2022/04/02 08:21:14;;;;;;;;;;;2.60;71.90;;;;;;5045465;28;19913;-82
2022/04/02 08:23:40;;;;;;;;;;;2.80;72.10;;;;;;5036406;28;19920;-84
2022/04/02 08:26:18;;;;;;;;;;;3.00;70.20;;;;;;5033883;28;19924;-83
2022/04/02 08:28:47;;;;;;;;;;;2.90;69.40;;;;;;5030021;28;19913;-82
2022/04/02 08:31:33;;;;;;;;;;;2.80;70.10;;;;;;5035956;28;20391;-85
2022/04/02 08:33:59;;;;;;;;;;;2.90;70.90;;;;;;5026224;28;20356;-83
2022/04/02 08:36:30;;;;;;;;;;;3.00;70.90;;;;;;5036039;28;19984;-83
2022/04/02 08:39:02;;;;;;;;;;;3.10;70.70;;;;;;5044408;28;19932;-83
2022/04/02 08:41:52;;;;;;;;;;;3.10;70.90;;;;;;5045038;28;19924;-84
2022/04/02 08:44:36;;;;;;;;;;;3.20;69.70;;;;;;5034596;28;19913;-84
2022/04/02 08:47:14;;;;;;;;;;;3.30;69.70;;;;;;5030792;28;19913;-83
2022/04/02 08:49:58;;;;;;;;;;;3.30;69.70;;;;;;5032124;28;19917;-83
2022/04/02 08:52:51;;;;;;;;;;;3.30;68.20;;;;;;5040175;28;19949;-83
2022/04/02 08:55:20;;;;;;;;;;;3.20;69.20;;;;;;5030324;28;19960;-84
2022/04/02 08:57:52;;;;;;;;;;;3.30;69.30;;;;;;5032368;28;20388;-84
2022/04/02 09:00:23;;;;;;;;;;;3.40;69.90;;;;;;5027828;28;19978;-84
2022/04/02 09:03:08;;;;;;;;;;;3.50;70.70;;;;;;5029283;28;19936;-84
2022/04/02 09:05:52;;;;;;;;;;;3.60;67.90;;;;;;5031745;28;20395;-84
2022/04/02 09:08:28;;;;;;;;;;;3.50;67.80;;;;;;5028735;28;19921;-85
2022/04/02 09:11:05;;;;;;;;;;;3.30;67.40;;;;;;5026662;28;19928;-84
2022/04/02 09:13:36;;;;;;;;;;;3.20;67.60;;;;;;5031247;28;19963;-86
2022/04/02 09:16:06;;;;;;;;;;;3.20;67.80;;;;;;5028777;28;19945;-84
2022/04/02 09:19:07;;;;;;;;;;;3.30;68.10;;;;;;5031414;28;19968;-87
2022/04/02 09:21:42;;;;;;;;;;;3.40;66.80;;;;;;5033335;28;20419;-83
2022/04/02 09:24:11;;;;;;;;;;;3.40;68.40;;;;;;5033195;28;19913;-83
2022/04/02 09:26:45;;;;;;;;;;;3.40;68.60;;;;;;5026703;28;20391;-86
2022/04/02 09:29:13;;;;;;;;;;;3.50;69.30;;;;;;5031290;28;19927;-85
2022/04/02 09:31:54;;;;;;;;;;;3.70;68.10;;;;;;5048477;28;19927;-86
2022/04/02 09:34:49;;;;;;;;;;;3.80;67.10;;;;;;5031848;28;19914;-85
2022/04/02 09:37:23;;;;;;;;;;;3.60;65.70;;;;;;5019915;28;19909;-85
2022/04/02 09:40:08;;;;;;;;;;;3.50;66.90;;;;;;5034776;28;19917;-86
2022/04/02 09:42:38;;;;;;;;;;;3.70;66.20;;;;;;5037336;28;19940;-86
2022/04/02 09:45:05;;;;;;;;;;;3.60;66.40;;;;;;5051376;28;19913;-86
2022/04/02 09:47:49;;;;;;;;;;;3.70;66.20;;;;;;5051048;28;19940;-85
2022/04/02 09:50:16;;;;;;;;;;;3.90;65.40;;;;;;5021204;28;19917;-80
2022/04/02 09:52:44;;;;;;;;;;;4.20;64.70;;;;;;5034519;28;19913;-86
2022/04/02 09:55:14;;;;;;;;;;;4.30;63.40;;;;;;5044653;28;20351;-87
2022/04/02 09:58:05;;;;;;;;;;;4.30;64.70;;;;;;5036001;28;19928;-85
2022/04/02 10:00:38;;;;;;;;;;;4.50;63.70;;;;;;5051494;28;19992;-85
2022/04/02 10:03:08;;;;;;;;;;;4.40;63.70;;;;;;5032955;28;19932;-85
2022/04/02 10:05:44;;;;;;;;;;;4.20;63.60;;;;;;5033432;28;19996;-86
2022/04/02 10:08:28;;;;;;;;;;;4.20;64.60;;;;;;5018885;28;19970;-85
2022/04/02 10:10:55;;;;;;;;;;;4.00;64.20;;;;;;5026908;28;19921;-85
2022/04/02 10:13:21;;;;;;;;;;;4.00;64.10;;;;;;5021184;28;20317;-87
2022/04/02 10:15:47;;;;;;;;;;;4.30;65.20;;;;;;5028826;28;19913;-85
2022/04/02 10:18:13;;;;;;;;;;;4.20;64.80;;;;;;5032044;28;19917;-83
2022/04/02 10:20:39;;;;;;;;;;;4.00;64.00;;;;;;5034096;28;19909;-84
2022/04/02 10:23:14;;;;;;;;;;;4.10;64.60;;;;;;5033119;28;20287;-84
2022/04/02 10:25:54;;;;;;;;;;;4.20;65.50;;;;;;5031922;28;19928;-84
2022/04/02 10:28:26;;;;;;;;;;;4.10;65.40;;;;;;5043311;28;20248;-84
2022/04/02 10:30:55;;;;;;;;;;;4.10;65.10;;;;;;5031544;28;19909;-84
2022/04/02 10:33:27;;;;;;;;;;;4.30;66.10;;;;;;5030569;28;20024;-84
2022/04/02 10:35:53;;;;;;;;;;;4.30;64.80;;;;;;5030054;28;19961;-84
2022/04/02 10:38:28;;;;;;;;;;;4.40;63.70;;;;;;5024768;28;19913;-86
2022/04/02 10:40:54;;;;;;;;;;;4.10;63.40;;;;;;5034253;28;20421;-84
2022/04/02 10:43:20;;;;;;;;;;;4.20;64.70;;;;;;5044557;28;19920;-83
2022/04/02 10:45:46;;;;;;;;;;;4.10;65.20;;;;;;5036522;28;19917;-84
2022/04/02 10:48:13;;;;;;;;;;;4.00;65.10;;;;;;5040535;28;19996;-82
2022/04/02 10:50:40;;;;;;;;;;;4.00;64.70;;;;;;5037605;28;19923;-82
2022/04/02 10:53:06;;;;;;;;;;;4.00;65.60;;;;;;5034033;28;19924;-83
2022/04/02 10:55:32;;;;;;;;;;;4.00;64.70;;;;;;5036447;28;20633;-81
2022/04/02 10:58:00;;;;;;;;;;;4.10;63.80;;;;;;5037367;28;19935;-79
2022/04/02 11:00:27;;;;;;;;;;;4.10;66.30;;;;;;5035568;28;20004;-78
2022/04/02 11:03:01;;;;;;;;;;;4.10;65.40;;;;;;5034194;28;19937;-77
2022/04/02 11:05:29;;;;;;;;;;;4.10;65.40;;;;;;5033164;28;19921;-78
2022/04/02 11:08:04;;;;;;;;;;;4.00;65.80;;;;;;5035684;28;19921;-81
2022/04/02 11:10:33;;;;;;;;;;;4.10;66.80;;;;;;5030968;28;20013;-84
2022/04/02 11:12:59;;;;;;;;;;;4.10;67.00;;;;;;5043852;28;19919;-82
2022/04/02 11:15:25;;;;;;;;;;;3.80;68.40;;;;;;5056303;28;19924;-86
2022/04/02 11:17:54;;;;;;;;;;;4.00;67.00;;;;;;5033829;28;19921;-86
2022/04/02 11:20:21;;;;;;;;;;;4.10;68.70;;;;;;5036444;28;19939;-83
2022/04/02 11:22:49;;;;;;;;;;;4.10;67.90;;;;;;5033053;28;19956;-83
2022/04/02 11:25:18;;;;;;;;;;;4.20;67.90;;;;;;5036510;28;20299;-84
2022/04/02 11:27:46;;;;;;;;;;;4.20;69.30;;;;;;5038635;28;19925;-85
2022/04/02 11:30:11;;;;;;;;;;;4.20;69.70;;;;;;5035603;28;19919;-84
2022/04/02 11:32:37;;;;;;;;;;;4.20;69.40;;;;;;5031776;28;19956;-85
2022/04/02 11:35:06;;;;;;;;;;;4.10;68.60;;;;;;5038888;28;20000;-84
2022/04/02 11:37:33;;;;;;;;;;;4.00;70.50;;;;;;5040791;28;19917;-85
2022/04/02 11:40:03;;;;;;;;;;;3.90;69.10;;;;;;5031320;28;20000;-85
2022/04/02 11:42:31;;;;;;;;;;;3.80;69.60;;;;;;5032425;28;19914;-85
2022/04/02 11:44:59;;;;;;;;;;;3.80;70.20;;;;;;5023222;28;19913;-85
2022/04/02 11:47:26;;;;;;;;;;;3.80;69.40;;;;;;5029321;28;20343;-85
2022/04/02 11:49:53;;;;;;;;;;;3.70;69.50;;;;;;5036017;28;19913;-85
2022/04/02 11:52:19;;;;;;;;;;;3.60;70.70;;;;;;5034935;28;20352;-86
2022/04/02 11:54:44;;;;;;;;;;;3.80;70.70;;;;;;5031965;28;19913;-83
2022/04/02 11:57:11;;;;;;;;;;;3.90;70.50;;;;;;5044418;28;19922;-85
2022/04/02 11:59:37;;;;;;;;;;;3.90;70.00;;;;;;5046235;28;19963;-85
2022/04/02 12:02:03;;;;;;;;;;;3.90;70.80;;;;;;5035518;28;19913;-85
2022/04/02 12:04:30;;;;;;;;;;;4.00;71.30;;;;;;5032888;28;19925;-85
2022/04/02 12:07:05;;;;;;;;;;;4.10;70.50;;;;;;5033088;28;19917;-84
2022/04/02 12:09:32;;;;;;;;;;;4.10;70.30;;;;;;5033617;28;19921;-86
2022/04/02 12:11:59;;;;;;;;;;;4.10;71.40;;;;;;5033130;28;19920;-86
2022/04/02 12:14:38;;;;;;;;;;;4.10;70.50;;;;;;5035168;28;19913;-85
2022/04/02 12:17:05;;;;;;;;;;;4.10;69.60;;;;;;5047336;28;19921;-85
2022/04/02 12:19:37;;;;;;;;;;;4.10;69.00;;;;;;5034529;28;20396;-84
2022/04/02 12:22:04;;;;;;;;;;;4.10;68.80;;;;;;5033953;28;20335;-85
2022/04/02 12:24:39;;;;;;;;;;;4.20;68.10;;;;;;5032291;28;20375;-86
2022/04/02 12:27:09;;;;;;;;;;;4.30;66.40;;;;;;5035261;28;19975;-87
2022/04/02 12:29:34;;;;;;;;;;;4.50;66.80;;;;;;5032371;28;20354;-85
2022/04/02 12:32:01;;;;;;;;;;;4.60;67.70;;;;;;5033473;28;19913;-82
2022/04/02 12:34:27;;;;;;;;;;;4.70;65.80;;;;;;5033608;28;19909;-84
2022/04/02 12:37:00;;;;;;;;;;;4.60;65.50;;;;;;5031495;28;19913;-82
2022/04/02 12:39:26;;;;;;;;;;;4.60;67.20;;;;;;5027578;28;19928;-85
2022/04/02 12:41:51;;;;;;;;;;;4.60;65.80;;;;;;5028612;28;20020;-82
2022/04/02 12:44:21;;;;;;;;;;;4.40;66.30;;;;;;5040878;28;19924;-81
2022/04/02 12:46:46;;;;;;;;;;;4.50;65.30;;;;;;5048378;28;19913;-81
2022/04/02 12:49:29;;;;;;;;;;;4.50;66.30;;;;;;5038836;28;19917;-82
2022/04/02 12:52:14;;;;;;;;;;;4.60;65.80;;;;;;5035475;28;19952;-83
2022/04/02 12:54:44;;;;;;;;;;;4.70;65.70;;;;;;5033779;28;19981;-82
2022/04/02 12:57:11;;;;;;;;;;;4.70;65.10;;;;;;5028285;28;19972;-82
2022/04/02 12:59:41;;;;;;;;;;;4.90;64.30;;;;;;5031832;28;19972;-83
2022/04/02 13:02:06;;;;;;;;;;;4.80;64.10;;;;;;5028116;28;19991;-82
2022/04/02 13:04:32;;;;;;;;;;;4.80;64.60;;;;;;5024991;28;20559;-83
2022/04/02 13:06:59;;;;;;;;;;;4.90;62.60;;;;;;5031021;28;19912;-83
2022/04/02 13:09:32;;;;;;;;;;;4.90;66.00;;;;;;5030948;28;20036;-82
2022/04/02 13:12:02;;;;;;;;;;;5.00;63.60;;;;;;5029980;28;19921;-83
2022/04/02 13:14:28;;;;;;;;;;;4.70;63.00;;;;;;5030830;28;19917;-83
2022/04/02 13:17:07;;;;;;;;;;;4.70;63.80;;;;;;5033030;28;20344;-82
2022/04/02 13:22:37;;;;;;;;;;;4.40;67.60;;;;;;5011935;28;19919;-81
2022/04/02 13:25:08;;;;;;;;;;;4.60;67.90;;;;;;5034345;28;19950;-80
2022/04/02 13:27:53;;;;;;;;;;;5.00;66.30;;;;;;5033108;28;19952;-80
2022/04/02 13:30:18;;;;;;;;;;;5.10;64.10;;;;;;5043298;28;19913;-82
2022/04/02 13:33:10;;;;;;;;;;;5.30;65.20;;;;;;5028037;28;20338;-81
2022/04/02 13:35:43;;;;;;;;;;;5.30;66.60;;;;;;5032823;28;20454;-80
2022/04/02 13:38:27;;;;;;;;;;;5.50;64.50;;;;;;5033652;28;19913;-80
2022/04/02 13:40:55;;;;;;;;;;;5.30;64.10;;;;;;5045163;28;20091;-80
2022/04/02 13:43:33;;;;;;;;;;;5.50;64.80;;;;;;5032291;28;19920;-80
2022/04/02 13:46:02;;;;;;;;;;;5.60;63.40;;;;;;5016997;28;20366;-80
2022/04/02 13:48:28;;;;;;;;;;;5.60;64.70;;;;;;5036821;28;19921;-79
2022/04/02 13:51:06;;;;;;;;;;;5.20;62.30;;;;;;5033587;28;19921;-80
2022/04/02 13:53:36;;;;;;;;;;;4.90;64.40;;;;;;5038406;28;20317;-82
2022/04/02 13:56:12;;;;;;;;;;;4.80;65.70;;;;;;5028955;28;19921;-82
2022/04/02 13:58:39;;;;;;;;;;;4.70;65.20;;;;;;5032366;28;19913;-83
2022/04/02 14:01:06;;;;;;;;;;;4.60;66.10;;;;;;5029166;28;19960;-84
2022/04/02 14:03:32;;;;;;;;;;;4.60;66.00;;;;;;5028795;28;19921;-82
2022/04/02 14:05:58;;;;;;;;;;;4.60;67.00;;;;;;5030783;28;19913;-83
2022/04/02 14:08:32;;;;;;;;;;;4.80;67.00;;;;;;5031094;28;19917;-83
2022/04/02 14:10:58;;;;;;;;;;;4.90;64.90;;;;;;5046436;28;19921;-82
2022/04/02 14:13:27;;;;;;;;;;;5.00;66.30;;;;;;5030238;28;19913;-82
2022/04/02 14:15:54;;;;;;;;;;;5.10;64.90;;;;;;5029963;28;19917;-82
2022/04/02 14:18:26;;;;;;;;;;;5.30;61.10;;;;;;5031272;28;19917;-82
2022/04/02 14:20:53;;;;;;;;;;;5.60;59.20;;;;;;5030594;28;19932;-81
2022/04/02 14:23:29;;;;;;;;;;;5.80;58.90;;;;;;5033739;28;20002;-83
2022/04/02 14:26:04;;;;;;;;;;;5.80;56.30;;;;;;5033262;28;20106;-82
2022/04/02 14:28:42;;;;;;;;;;;5.80;58.20;;;;;;5031383;28;20678;-82
2022/04/02 14:31:13;;;;;;;;;;;5.90;57.50;;;;;;5034346;28;19909;-83
2022/04/02 14:33:58;;;;;;;;;;;5.80;55.00;;;;;;5036757;28;19914;-84
2022/04/02 14:36:39;;;;;;;;;;;5.60;55.70;;;;;;5015092;28;19917;-83
2022/04/02 14:39:07;;;;;;;;;;;5.60;54.30;;;;;;5043616;28;19920;-80
2022/04/02 14:41:39;;;;;;;;;;;5.60;52.50;;;;;;5041067;28;19913;-80
2022/04/02 14:44:23;;;;;;;;;;;5.60;52.20;;;;;;5030282;28;19924;-80
2022/04/02 14:47:12;;;;;;;;;;;5.70;52.50;;;;;;5030489;28;20379;-77